createdAt,value
2023-04-23T00:01:28.466Z,54.52
2023-04-23T00:03:58.223Z,54.50
2023-04-23T00:06:26.753Z,54.08
2023-04-23T00:08:55.297Z,53.75
2023-04-23T00:11:22.719Z,53.24
2023-04-23T00:13:50.439Z,53.00
2023-04-23T00:16:20.643Z,53.35
2023-04-23T00:18:48.018Z,52.60
2023-04-23T00:21:15.523Z,52.10
2023-04-23T00:23:42.442Z,52.49
2023-04-23T00:26:09.328Z,52.02
2023-04-23T00:28:36.489Z,51.81
2023-04-23T00:31:03.626Z,51.96
2023-04-23T00:33:31.859Z,51.83
2023-04-23T00:35:58.763Z,51.92
2023-04-23T00:38:26.470Z,51.85
2023-04-23T00:40:53.455Z,51.89
2023-04-23T00:43:21.025Z,52.20
2023-04-23T00:45:48.343Z,51.92
2023-04-23T00:48:16.294Z,52.21
2023-04-23T00:50:44.529Z,52.44
2023-04-23T00:53:11.486Z,52.10
2023-04-23T00:55:38.679Z,52.25
2023-04-23T00:58:06.672Z,52.29
2023-04-23T01:00:40.552Z,52.35
2023-04-23T01:03:08.039Z,52.51
2023-04-23T01:05:35.533Z,52.55
2023-04-23T01:08:04.089Z,52.25
2023-04-23T01:10:32.693Z,52.53
2023-04-23T01:13:00.167Z,52.72
2023-04-23T01:15:27.131Z,52.71
2023-04-23T01:17:54.125Z,52.63
2023-04-23T01:20:21.458Z,52.64
2023-04-23T01:22:49.780Z,52.52
2023-04-23T01:25:17.029Z,52.41
2023-04-23T01:27:44.288Z,52.52
2023-04-23T01:30:12.657Z,52.44
2023-04-23T01:32:40.766Z,52.76
2023-04-23T01:35:09.133Z,52.77
2023-04-23T01:37:38.346Z,52.71
2023-04-23T01:40:08.555Z,52.92
2023-04-23T01:42:36.331Z,53.08
2023-04-23T01:45:04.269Z,53.11
2023-04-23T01:47:31.727Z,52.96
2023-04-23T01:49:58.660Z,53.00
2023-04-23T01:52:26.797Z,53.01
2023-04-23T01:54:54.143Z,52.78
2023-04-23T01:57:26.486Z,52.70
2023-04-23T02:00:08.226Z,52.70
2023-04-23T02:02:35.644Z,52.79
2023-04-23T02:05:04.641Z,52.75
2023-04-23T02:07:32.320Z,52.52
2023-04-23T02:09:59.328Z,52.55
2023-04-23T02:12:27.612Z,51.99
2023-04-23T02:14:54.746Z,51.93
2023-04-23T02:17:22.838Z,51.69
2023-04-23T02:19:50.463Z,51.65
2023-04-23T02:22:18.220Z,51.69
2023-04-23T02:24:47.162Z,51.81
2023-04-23T02:27:14.198Z,51.67
2023-04-23T02:29:42.953Z,51.77
2023-04-23T02:32:10.316Z,51.46
2023-04-23T02:34:37.566Z,51.56
2023-04-23T02:37:05.099Z,51.61
2023-04-23T02:39:32.482Z,51.49
2023-04-23T02:41:59.775Z,51.57
2023-04-23T02:44:26.725Z,51.60
2023-04-23T02:46:55.060Z,51.73
2023-04-23T02:49:22.027Z,51.70
2023-04-23T02:51:48.919Z,51.84
2023-04-23T02:54:15.902Z,51.98
2023-04-23T02:56:42.888Z,51.83
2023-04-23T02:59:11.412Z,52.06
2023-04-23T03:01:38.377Z,52.16
2023-04-23T03:04:07.394Z,52.08
2023-04-23T03:06:35.638Z,52.25
2023-04-23T03:09:02.747Z,52.24
2023-04-23T03:11:29.682Z,52.33
2023-04-23T03:13:56.592Z,52.44
2023-04-23T03:16:23.652Z,52.52
2023-04-23T03:18:50.627Z,52.40
2023-04-23T03:21:18.854Z,52.65
2023-04-23T03:23:45.739Z,52.76
2023-04-23T03:26:12.621Z,52.68
2023-04-23T03:28:39.562Z,52.66
2023-04-23T03:31:06.575Z,52.79
2023-04-23T03:33:33.607Z,52.73
2023-04-23T03:36:00.567Z,52.92
2023-04-23T03:38:28.981Z,53.03
2023-04-23T03:40:55.855Z,53.39
2023-04-23T03:43:23.271Z,53.12
2023-04-23T03:45:50.335Z,53.02
2023-04-23T03:48:17.239Z,52.94
2023-04-23T03:50:44.213Z,53.06
2023-04-23T03:53:11.278Z,52.88
2023-04-23T03:55:39.622Z,52.73
2023-04-23T03:58:06.692Z,52.57
2023-04-23T04:00:33.722Z,52.73
2023-04-23T04:03:02.361Z,52.49
2023-04-23T04:05:29.453Z,52.38
2023-04-23T04:07:56.545Z,52.38
2023-04-23T04:10:23.450Z,52.42
2023-04-23T04:12:51.743Z,52.39
2023-04-23T04:15:20.652Z,52.53
2023-04-23T04:17:47.867Z,52.49
2023-04-23T04:20:14.868Z,52.53
2023-04-23T04:22:41.802Z,52.56
2023-04-23T04:25:09.705Z,52.57
2023-04-23T04:27:37.547Z,52.31
2023-04-23T04:30:07.835Z,52.44
2023-04-23T04:32:35.304Z,52.55
2023-04-23T04:35:02.555Z,52.66
2023-04-23T04:37:29.552Z,52.32
2023-04-23T04:39:56.978Z,52.64
2023-04-23T04:42:25.335Z,52.55
2023-04-23T04:44:52.879Z,52.35
2023-04-23T04:47:21.115Z,52.84
2023-04-23T04:49:48.717Z,52.39
2023-04-23T04:52:15.848Z,52.46
2023-04-23T04:54:43.382Z,52.59
2023-04-23T04:57:10.857Z,52.60
2023-04-23T04:59:37.741Z,52.51
2023-04-23T05:02:04.798Z,52.62
2023-04-23T05:04:34.166Z,52.74
2023-04-23T05:07:01.129Z,52.61
2023-04-23T05:09:28.065Z,52.53
2023-04-23T05:11:55.041Z,52.63
2023-04-23T05:14:22.054Z,52.47
2023-04-23T05:16:49.183Z,52.50
2023-04-23T05:19:16.350Z,52.40
2023-04-23T05:21:44.957Z,52.24
2023-04-23T05:24:11.862Z,52.67
2023-04-23T05:26:38.780Z,52.64
2023-04-23T05:29:05.732Z,52.47
2023-04-23T05:31:32.822Z,52.18
2023-04-23T05:33:59.778Z,52.10
2023-04-23T05:36:27.366Z,52.31
2023-04-23T05:38:55.651Z,52.03
2023-04-23T05:41:22.634Z,52.19
2023-04-23T05:43:49.528Z,51.98
2023-04-23T05:46:16.572Z,51.99
2023-04-23T05:48:43.460Z,52.40
2023-04-23T05:51:11.210Z,52.33
2023-04-23T05:53:38.086Z,52.80
2023-04-23T05:56:06.491Z,52.69
2023-04-23T05:58:33.396Z,53.21
2023-04-23T06:01:00.353Z,52.80
2023-04-23T06:03:27.466Z,53.05
2023-04-23T06:05:54.687Z,53.14
2023-04-23T06:08:23.253Z,53.31
2023-04-23T06:10:51.520Z,52.96
2023-04-23T06:13:19.770Z,52.78
2023-04-23T06:15:46.814Z,53.05
2023-04-23T06:18:13.734Z,52.83
2023-04-23T06:20:40.983Z,53.23
2023-04-23T06:23:07.894Z,52.88
2023-04-23T06:25:34.763Z,53.31
2023-04-23T06:28:01.623Z,52.76
2023-04-23T06:30:29.979Z,52.62
2023-04-23T06:32:56.958Z,53.05
2023-04-23T06:35:23.941Z,52.75
2023-04-23T06:37:50.831Z,52.58
2023-04-23T06:40:17.846Z,52.83
2023-04-23T06:42:45.450Z,52.75
2023-04-23T06:45:12.344Z,52.59
2023-04-23T06:47:40.576Z,52.34
2023-04-23T06:50:08.871Z,52.44
2023-04-23T06:52:36.375Z,52.04
2023-04-23T06:55:03.682Z,51.52
2023-04-23T06:57:30.983Z,51.13
2023-04-23T06:59:57.931Z,51.77
2023-04-23T07:02:24.942Z,51.66
2023-04-23T07:04:53.198Z,51.72
2023-04-23T07:07:20.199Z,51.82
2023-04-23T07:09:47.079Z,51.53
2023-04-23T07:12:14.050Z,51.09
2023-04-23T07:14:41.162Z,50.95
2023-04-23T07:17:08.322Z,50.73
2023-04-23T07:19:35.589Z,50.48
2023-04-23T07:22:04.015Z,50.42
2023-04-23T07:24:31.027Z,50.37
2023-04-23T07:26:59.064Z,50.21
2023-04-23T07:29:25.960Z,50.24
2023-04-23T07:31:52.940Z,49.75
2023-04-23T07:34:19.868Z,49.11
2023-04-23T07:36:46.774Z,47.21
2023-04-23T07:39:15.070Z,46.59
2023-04-23T07:41:42.036Z,44.33
2023-04-23T07:44:08.981Z,43.61
2023-04-23T07:46:35.925Z,41.51
2023-04-23T07:49:02.881Z,41.16
2023-04-23T07:51:31.849Z,40.20
2023-04-23T07:53:58.867Z,38.79
2023-04-23T07:56:27.227Z,37.45
2023-04-23T07:58:56.423Z,36.27
2023-04-23T08:01:23.638Z,35.47
2023-04-23T08:03:51.015Z,34.87
2023-04-23T08:06:20.310Z,32.89
2023-04-23T08:08:47.219Z,33.39
2023-04-23T08:11:14.211Z,32.39
2023-04-23T08:13:42.460Z,31.24
2023-04-23T08:16:09.419Z,30.53
2023-04-23T08:18:36.549Z,29.19
2023-04-23T08:21:04.328Z,28.71
2023-04-23T08:23:31.425Z,27.88
2023-04-23T08:25:58.478Z,27.35
2023-04-23T08:28:25.662Z,27.51
2023-04-23T08:30:54.189Z,27.11
2023-04-23T08:33:21.138Z,26.61
2023-04-23T08:35:48.170Z,25.52
2023-04-23T08:38:15.074Z,26.01
2023-04-23T08:40:44.664Z,25.02
2023-04-23T08:43:18.820Z,24.17
2023-04-23T08:45:49.579Z,23.32
2023-04-23T08:48:19.689Z,23.24
2023-04-23T08:50:47.439Z,22.51
2023-04-23T08:53:19.366Z,22.02
2023-04-23T08:55:49.333Z,21.96
2023-04-23T08:58:16.598Z,20.56
2023-04-23T09:00:44.760Z,19.57
2023-04-23T09:03:12.495Z,19.78
2023-04-23T09:05:41.264Z,19.87
2023-04-23T09:08:10.301Z,19.50
2023-04-23T09:10:41.771Z,19.36
2023-04-23T09:13:08.961Z,19.15
2023-04-23T09:15:39.495Z,18.63
2023-04-23T09:18:07.872Z,18.13
2023-04-23T09:20:34.911Z,18.00
2023-04-23T09:23:08.130Z,17.32
2023-04-23T09:25:36.536Z,17.12
2023-04-23T09:28:11.460Z,17.67
2023-04-23T09:30:44.692Z,17.37
2023-04-23T09:33:13.002Z,16.46
2023-04-23T09:35:43.024Z,17.42
2023-04-23T09:38:11.906Z,17.38
2023-04-23T09:40:38.882Z,17.18
2023-04-23T09:43:07.387Z,17.63
2023-04-23T09:45:35.328Z,16.92
2023-04-23T09:48:02.665Z,17.02
2023-04-23T09:50:34.861Z,17.04
2023-04-23T09:53:01.875Z,17.40
2023-04-23T09:55:35.414Z,17.52
2023-04-23T09:58:03.889Z,17.76
2023-04-23T10:00:36.357Z,17.45
2023-04-23T10:03:04.721Z,17.71
2023-04-23T10:05:45.081Z,17.18
2023-04-23T10:08:19.580Z,16.04
2023-04-23T10:13:20.838Z,16.83
2023-04-23T10:15:48.605Z,17.17
2023-04-23T10:18:16.346Z,15.84
2023-04-23T10:20:43.564Z,16.33
2023-04-23T10:23:13.375Z,16.04
2023-04-23T10:25:42.670Z,16.06
2023-04-23T10:28:15.279Z,16.72
2023-04-23T10:30:44.107Z,16.01
2023-04-23T10:33:26.529Z,15.77
2023-04-23T10:35:57.896Z,17.09
2023-04-23T10:38:28.330Z,17.23
2023-04-23T10:40:58.552Z,17.95
2023-04-23T10:43:27.118Z,18.13
2023-04-23T10:45:54.263Z,18.19
2023-04-23T10:48:21.629Z,18.01
2023-04-23T10:51:09.531Z,17.64
2023-04-23T10:53:46.017Z,17.06
2023-04-23T10:56:13.596Z,16.54
2023-04-23T10:58:51.185Z,17.99
2023-04-23T11:01:18.826Z,18.30
2023-04-23T11:03:47.671Z,19.09
2023-04-23T11:06:20.110Z,19.60
2023-04-23T11:08:54.432Z,20.03
2023-04-23T11:11:40.077Z,21.37
2023-04-23T11:14:16.326Z,22.04
2023-04-23T11:16:43.619Z,22.43
2023-04-23T11:19:17.271Z,23.48
2023-04-23T11:22:04.362Z,22.90
2023-04-23T11:24:34.338Z,21.94
2023-04-23T11:27:02.548Z,20.90
2023-04-23T11:29:30.884Z,21.05
2023-04-23T11:32:03.236Z,22.01
2023-04-23T11:34:32.897Z,22.35
2023-04-23T11:37:01.254Z,22.76
2023-04-23T11:39:28.258Z,22.83
2023-04-23T11:41:55.545Z,23.28
2023-04-23T11:44:23.014Z,23.52
2023-04-23T11:46:51.321Z,23.04
2023-04-23T11:49:19.408Z,22.84
2023-04-23T11:51:48.047Z,23.38
2023-04-23T11:54:15.122Z,23.43
2023-04-23T11:56:42.465Z,23.11
2023-04-23T11:59:09.737Z,23.50
2023-04-23T12:01:48.050Z,23.95
2023-04-23T12:04:20.285Z,24.34
2023-04-23T12:06:51.917Z,24.55
2023-04-23T12:09:22.539Z,24.91
2023-04-23T12:11:52.803Z,25.45
2023-04-23T12:14:28.445Z,26.16
2023-04-23T12:16:56.975Z,27.08
2023-04-23T12:19:30.181Z,27.85
2023-04-23T12:21:59.358Z,27.93
2023-04-23T12:24:29.553Z,29.03
2023-04-23T12:27:00.680Z,29.10
2023-04-23T12:29:30.988Z,28.75
2023-04-23T12:32:00.420Z,29.46
2023-04-23T12:34:28.716Z,28.85
2023-04-23T12:36:57.587Z,27.99
2023-04-23T12:39:29.238Z,26.68
2023-04-23T12:42:00.083Z,27.05
2023-04-23T12:44:27.275Z,27.90
2023-04-23T12:46:59.994Z,28.42
2023-04-23T12:49:29.550Z,29.26
2023-04-23T12:51:57.875Z,30.21
2023-04-23T12:54:26.551Z,30.58
2023-04-23T12:56:53.897Z,31.25
2023-04-23T12:59:21.162Z,31.92
2023-04-23T13:01:48.492Z,31.54
2023-04-23T13:04:15.525Z,31.40
2023-04-23T13:06:43.919Z,30.79
2023-04-23T13:09:11.291Z,30.70
2023-04-23T13:11:38.972Z,29.71
2023-04-23T13:14:06.819Z,29.89
2023-04-23T13:16:34.097Z,29.35
2023-04-23T13:19:01.358Z,29.02
2023-04-23T13:21:28.260Z,28.43
2023-04-23T13:23:57.112Z,27.97
2023-04-23T13:26:24.047Z,27.10
2023-04-23T13:28:51.533Z,26.71
2023-04-23T13:31:18.730Z,26.64
2023-04-23T13:33:45.764Z,26.28
2023-04-23T13:36:12.751Z,25.99
2023-04-23T13:38:39.665Z,25.97
2023-04-23T13:41:07.883Z,25.63
2023-04-23T13:43:34.818Z,25.94
2023-04-23T13:46:01.920Z,26.26
2023-04-23T13:48:31.109Z,26.98
2023-04-23T13:51:00.411Z,26.79
2023-04-23T13:53:28.717Z,27.01
2023-04-23T13:55:56.856Z,26.69
2023-04-23T13:58:25.726Z,26.73
2023-04-23T14:00:52.977Z,27.28
2023-04-23T14:03:20.376Z,27.35
2023-04-23T14:05:47.543Z,27.39
2023-04-23T14:08:14.536Z,27.62
2023-04-23T14:10:43.575Z,27.99
2023-04-23T14:13:11.081Z,27.76
2023-04-23T14:15:39.464Z,28.03
2023-04-23T14:18:06.513Z,28.83
2023-04-23T14:20:33.750Z,28.72
2023-04-23T14:23:31.746Z,28.76
2023-04-23T14:26:04.433Z,27.82
2023-04-23T14:28:39.776Z,28.17
2023-04-23T14:31:08.101Z,28.09
2023-04-23T14:33:35.073Z,28.46
2023-04-23T14:36:02.121Z,29.04
2023-04-23T14:38:29.432Z,28.84
2023-04-23T14:40:56.664Z,30.04
2023-04-23T14:43:23.566Z,30.22
2023-04-23T14:45:50.936Z,30.61
2023-04-23T14:48:19.190Z,30.86
2023-04-23T14:50:46.131Z,31.07
2023-04-23T14:53:13.167Z,30.82
2023-04-23T14:55:42.704Z,31.49
2023-04-23T14:58:09.764Z,32.66
2023-04-23T15:00:36.785Z,33.17
2023-04-23T15:03:10.372Z,32.40
2023-04-23T15:05:39.999Z,33.23
2023-04-23T15:08:07.032Z,33.67
2023-04-23T15:10:34.184Z,37.24
2023-04-23T15:13:07.095Z,40.00
2023-04-23T15:15:44.756Z,41.01
2023-04-23T15:18:13.773Z,41.55
2023-04-23T15:20:42.801Z,42.42
2023-04-23T15:23:09.864Z,42.30
2023-04-23T15:25:37.283Z,42.60
2023-04-23T15:28:05.536Z,42.36
2023-04-23T15:30:32.480Z,41.62
2023-04-23T15:32:59.608Z,41.49
2023-04-23T15:35:28.058Z,44.42
2023-04-23T15:37:57.049Z,44.58
2023-04-23T15:40:24.063Z,44.80
2023-04-23T15:42:51.220Z,45.37
2023-04-23T15:45:18.167Z,45.46
2023-04-23T15:47:45.111Z,45.93
2023-04-23T15:50:13.005Z,46.36
2023-04-23T15:52:41.756Z,46.60
2023-04-23T15:55:10.363Z,46.61
2023-04-23T15:57:37.228Z,46.77
2023-04-23T16:00:05.997Z,46.74
2023-04-23T16:02:34.545Z,46.95
2023-04-23T16:05:01.807Z,46.31
2023-04-23T16:07:28.807Z,46.66
2023-04-23T16:09:55.781Z,46.42
2023-04-23T16:12:24.176Z,46.37
2023-04-23T16:14:51.438Z,46.30
2023-04-23T16:17:18.494Z,46.05
2023-04-23T16:19:46.395Z,46.04
2023-04-23T16:22:14.717Z,46.42
2023-04-23T16:24:41.897Z,45.88
2023-04-23T16:27:10.779Z,45.62
2023-04-23T16:29:40.463Z,45.26
2023-04-23T16:32:07.984Z,45.01
2023-04-23T16:34:34.890Z,45.33
2023-04-23T16:37:01.806Z,45.70
2023-04-23T16:39:28.685Z,45.45
2023-04-23T16:41:55.611Z,45.73
2023-04-23T16:44:22.525Z,46.21
2023-04-23T16:46:51.561Z,46.03
2023-04-23T16:49:18.620Z,46.24
2023-04-23T16:51:45.561Z,46.67
2023-04-23T16:54:12.501Z,46.86
2023-04-23T16:56:39.678Z,46.77
2023-04-23T16:59:06.775Z,47.05
2023-04-23T17:01:33.686Z,46.11
2023-04-23T17:04:02.245Z,44.42
2023-04-23T17:06:31.478Z,45.80
2023-04-23T17:09:00.997Z,47.68
2023-04-23T17:11:30.068Z,48.36
2023-04-23T17:13:57.906Z,49.24
2023-04-23T17:16:26.752Z,50.06
2023-04-23T17:18:54.392Z,49.66
2023-04-23T17:21:23.371Z,50.28
2023-04-23T17:23:50.880Z,50.41
2023-04-23T17:26:17.869Z,50.24
2023-04-23T17:28:44.791Z,49.58
2023-04-23T17:31:11.898Z,49.78
2023-04-23T17:33:39.337Z,50.12
2023-04-23T17:36:06.494Z,50.89
2023-04-23T17:38:34.786Z,50.31
2023-04-23T17:41:03.081Z,50.85
2023-04-23T17:43:31.766Z,50.94
2023-04-23T17:45:58.979Z,50.71
2023-04-23T17:48:25.999Z,51.32
2023-04-23T17:50:54.477Z,51.40
2023-04-23T17:53:21.411Z,51.68
2023-04-23T17:55:49.809Z,51.67
2023-04-23T17:58:16.899Z,51.91
2023-04-23T18:00:44.081Z,52.14
2023-04-23T18:03:16.479Z,52.49
2023-04-23T18:05:44.929Z,52.65
2023-04-23T18:08:12.846Z,52.71
2023-04-23T18:10:40.297Z,52.77
2023-04-23T18:13:11.439Z,53.05
2023-04-23T18:15:40.666Z,52.54
2023-04-23T18:18:07.873Z,51.93
2023-04-23T18:20:38.114Z,52.18
2023-04-23T18:23:06.314Z,51.79
2023-04-23T18:25:33.425Z,51.96
2023-04-23T18:28:00.554Z,50.99
2023-04-23T18:30:29.012Z,50.27
2023-04-23T18:33:07.157Z,50.47
2023-04-23T18:35:34.334Z,50.70
2023-04-23T18:38:09.341Z,50.22
2023-04-23T18:40:39.265Z,50.36
2023-04-23T18:43:16.829Z,50.26
2023-04-23T18:45:47.959Z,50.29
2023-04-23T18:48:45.114Z,50.27
2023-04-23T18:51:25.112Z,50.49
2023-04-23T18:53:52.378Z,51.08
2023-04-23T18:56:19.413Z,50.99
2023-04-23T18:58:46.355Z,51.60
2023-04-23T19:01:15.136Z,51.59
2023-04-23T19:03:42.860Z,51.37
2023-04-23T19:06:10.281Z,51.09
2023-04-23T19:08:37.405Z,51.36
2023-04-23T19:11:04.753Z,51.29
2023-04-23T19:13:31.897Z,51.58
2023-04-23T19:15:59.581Z,51.21
2023-04-23T19:18:28.126Z,51.57
2023-04-23T19:20:55.168Z,51.33
2023-04-23T19:23:22.099Z,51.76
2023-04-23T19:25:49.131Z,51.68
2023-04-23T19:28:16.275Z,51.54
2023-04-23T19:30:43.487Z,52.21
2023-04-23T19:33:11.054Z,51.76
2023-04-23T19:35:40.418Z,52.37
2023-04-23T19:38:07.540Z,52.25
2023-04-23T19:40:34.555Z,52.46
2023-04-23T19:43:01.655Z,52.72
2023-04-23T19:45:29.936Z,52.88
2023-04-23T19:47:57.165Z,52.46
2023-04-23T19:50:24.513Z,52.66
2023-04-23T19:52:53.231Z,52.17
2023-04-23T19:55:22.356Z,52.37
2023-04-23T19:57:49.308Z,51.93
2023-04-23T20:00:16.947Z,52.17
2023-04-23T20:02:44.081Z,51.67
2023-04-23T20:05:11.542Z,52.24
2023-04-23T20:07:38.732Z,51.89
2023-04-23T20:10:08.689Z,51.56
2023-04-23T20:12:35.698Z,50.85
2023-04-23T20:15:02.732Z,51.22
2023-04-23T20:17:30.049Z,51.10
2023-04-23T20:20:01.479Z,51.36
2023-04-23T20:22:28.954Z,51.37
2023-04-23T20:24:56.313Z,51.39
2023-04-23T20:27:26.276Z,51.65
2023-04-23T20:29:53.400Z,51.72
2023-04-23T20:32:20.570Z,51.85
2023-04-23T20:34:47.606Z,52.52
2023-04-23T20:37:14.559Z,52.33
2023-04-23T20:39:42.965Z,52.09
2023-04-23T20:42:10.151Z,52.02
2023-04-23T20:44:38.464Z,52.23
2023-04-23T20:47:08.317Z,52.15
2023-04-23T20:49:35.506Z,52.33
2023-04-23T20:52:02.540Z,52.67
2023-04-23T20:54:29.582Z,52.55
2023-04-23T20:56:56.657Z,53.09
2023-04-23T20:59:23.916Z,53.35
2023-04-23T21:01:52.755Z,53.57
2023-04-23T21:04:19.827Z,53.44
2023-04-23T21:06:47.099Z,53.88
2023-04-23T21:09:14.165Z,53.37
2023-04-23T21:11:41.521Z,53.48
2023-04-23T21:14:08.923Z,53.67
2023-04-23T21:16:39.453Z,54.01
2023-04-23T21:19:07.764Z,54.16
2023-04-23T21:21:34.713Z,54.19
2023-04-23T21:24:01.825Z,54.16
2023-04-23T21:26:31.072Z,54.11
2023-04-23T21:28:58.243Z,54.15
2023-04-23T21:31:41.890Z,54.17
2023-04-23T21:34:10.453Z,54.48
2023-04-23T21:36:37.652Z,54.83
2023-04-23T21:39:04.630Z,54.92
2023-04-23T21:41:31.715Z,55.22
2023-04-23T21:43:58.731Z,55.20
2023-04-23T21:46:26.298Z,55.37
2023-04-23T21:48:53.556Z,55.17
2023-04-23T21:51:22.380Z,55.48
2023-04-23T21:53:49.465Z,55.60
2023-04-23T21:56:17.620Z,55.55
2023-04-23T21:58:45.524Z,55.63
2023-04-23T22:01:12.473Z,55.64
2023-04-23T22:03:42.774Z,55.75
2023-04-23T22:06:09.911Z,55.99
2023-04-23T22:08:38.291Z,55.92
2023-04-23T22:11:05.380Z,56.07
2023-04-23T22:13:32.338Z,56.20
2023-04-23T22:15:59.910Z,56.46
2023-04-23T22:18:26.896Z,56.68
2023-04-23T22:20:53.892Z,56.50
2023-04-23T22:23:21.522Z,56.46
2023-04-23T22:25:49.850Z,56.45
2023-04-23T22:28:17.104Z,56.54
2023-04-23T22:30:44.112Z,56.29
2023-04-23T22:33:11.012Z,56.37
2023-04-23T22:35:37.952Z,56.27
2023-04-23T22:38:05.138Z,56.51
2023-04-23T22:40:32.148Z,56.46
2023-04-23T22:43:00.401Z,56.55
2023-04-23T22:45:27.297Z,56.45
2023-04-23T22:47:54.706Z,56.54
2023-04-23T22:50:22.225Z,56.47
2023-04-23T22:52:49.141Z,56.63
2023-04-23T22:55:16.337Z,56.76
2023-04-23T22:57:43.303Z,56.66
2023-04-23T23:00:13.505Z,56.74
2023-04-23T23:02:40.490Z,56.61
2023-04-23T23:05:08.212Z,56.63
2023-04-23T23:07:35.142Z,56.75
2023-04-23T23:10:03.622Z,56.70
2023-04-23T23:12:30.612Z,56.79
2023-04-23T23:14:57.508Z,56.83
2023-04-23T23:17:26.067Z,57.03
2023-04-23T23:19:52.983Z,56.83
2023-04-23T23:22:19.923Z,56.99
2023-04-23T23:24:46.814Z,56.95
2023-04-23T23:27:13.782Z,57.07
2023-04-23T23:29:40.887Z,57.18
2023-04-23T23:32:08.498Z,57.31
2023-04-23T23:34:36.737Z,57.07
2023-04-23T23:37:03.662Z,57.42
2023-04-23T23:39:30.675Z,57.81
2023-04-23T23:41:59.524Z,58.12
2023-04-23T23:44:26.883Z,58.53
2023-04-23T23:46:53.891Z,58.83
2023-04-23T23:49:21.497Z,58.84
2023-04-23T23:51:49.865Z,58.67
2023-04-23T23:54:16.774Z,58.58
2023-04-23T23:56:43.710Z,58.38
2023-04-23T23:59:10.660Z,58.07
